TimeEST,TemperatureF,Dew PointF,Humidity,Sea Level PressureIn,VisibilityMPH,Wind Direction,Wind SpeedMPH,Gust SpeedMPH,PrecipitationIn,Events,Conditions,WindDirDegrees,DateUTC
12:41 AM,32.0,24.8,75,29.69,10.0,West,6.9,-,N/A,,Partly Cloudy,280,2014-01-14 05:41:00
12:53 AM,30.9,24.1,76,29.71,10.0,WNW,8.1,-,N/A,,Scattered Clouds,290,2014-01-14 05:53:00
1:05 AM,30.2,24.8,80,29.69,10.0,West,5.8,-,N/A,,Mostly Cloudy,280,2014-01-14 06:05:00
1:34 AM,32.0,24.8,75,29.70,10.0,West,8.1,-,N/A,,Scattered Clouds,260,2014-01-14 06:34:00
1:53 AM,32.0,24.1,73,29.73,10.0,WSW,8.1,-,N/A,,Clear,250,2014-01-14 06:53:00
2:53 AM,-9999,-9999,N/A,29.74,8.0,SSW,4.6,-,N/A,,Scattered Clouds,210,2014-01-14 07:53:00
3:53 AM,32.0,23.0,69,29.75,7.0,SW,6.9,-,N/A,,Partly Cloudy,230,2014-01-14 08:53:00
4:53 AM,30.0,24.1,79,29.75,6.0,WSW,6.9,-,N/A,,Haze,240,2014-01-14 09:53:00
5:53 AM,28.9,23.0,78,29.75,4.0,WSW,4.6,-,N/A,,Haze,240,2014-01-14 10:53:00
6:53 AM,32.0,21.0,64,29.75,4.0,SSW,4.6,-,N/A,,Haze,210,2014-01-14 11:53:00
7:53 AM,-9999,-9999,N/A,29.75,4.0,South,6.9,-,N/A,,Haze,190,2014-01-14 12:53:00
8:53 AM,26.1,23.0,88,29.78,3.0,South,5.8,-,N/A,,Clear,180,2014-01-14 13:53:00
9:53 AM,26.1,24.1,92,29.78,5.0,South,9.2,-,N/A,,Clear,170,2014-01-14 14:53:00
10:53 AM,-9999,-9999,N/A,29.73,7.0,SSE,10.4,-,N/A,,Clear,150,2014-01-14 15:53:00
11:27 AM,32.0,26.6,80,29.74,2.5,SSE,11.5,-,N/A,,Haze,160,2014-01-14 16:27:00
11:36 AM,32.0,26.6,80,29.73,10.0,South,8.1,-,N/A,,Clear,180,2014-01-14 16:36:00
11:53 AM,32.0,26.1,79,29.75,2.0,SSE,12.7,-,N/A,,Haze,160,2014-01-14 16:53:00
12:01 PM,33.8,23.0,65,29.72,4.0,South,11.5,-,N/A,,Haze,180,2014-01-14 17:01:00
12:53 PM,35.1,21.9,59,29.72,10.0,South,11.5,-,N/A,,Mostly Cloudy,170,2014-01-14 17:53:00
1:53 PM,37.0,21.9,54,29.68,10.0,SSE,12.7,-,N/A,,Overcast,160,2014-01-14 18:53:00
2:53 PM,37.0,19.9,50,29.67,10.0,South,13.8,24.2,N/A,,Overcast,170,2014-01-14 19:53:00
3:53 PM,36.0,21.9,57,29.65,10.0,SE,15.0,-,N/A,,Overcast,140,2014-01-14 20:53:00
4:53 PM,35.1,24.1,64,29.68,6.0,South,21.9,27.6,0.00,Snow,Light Snow,190,2014-01-14 21:53:00
5:03 PM,33.8,26.6,75,29.65,2.5,SSW,18.4,26.5,0.00,Snow,Light Snow,210,2014-01-14 22:03:00
5:17 PM,33.8,28.4,81,29.65,0.8,South,13.8,23.0,0.00,Snow,Light Snow,190,2014-01-14 22:17:00
5:34 PM,32.0,30.2,93,29.65,1.0,South,11.5,-,0.01,Snow,Light Snow,190,2014-01-14 22:34:00
5:37 PM,32.0,30.2,93,29.65,1.5,South,13.8,-,0.01,Snow,Light Snow,190,2014-01-14 22:37:00
5:53 PM,32.0,30.0,92,29.68,3.0,South,12.7,-,0.01,Snow,Light Snow,190,2014-01-14 22:53:00
6:03 PM,32.0,28.4,87,29.65,2.5,SSW,11.5,-,0.01,Snow,Light Snow,200,2014-01-14 23:03:00
6:45 PM,33.8,30.2,87,29.65,2.5,SSW,15.0,20.7,0.01,,Overcast,200,2014-01-14 23:45:00
6:53 PM,32.0,30.0,92,29.68,2.5,SSW,11.5,20.7,0.01,Rain,Light Freezing Rain,200,2014-01-14 23:53:00
7:01 PM,33.8,30.2,87,29.65,3.0,SSW,10.4,-,0.00,Snow,Light Snow,200,2014-01-15 00:01:00
7:38 PM,33.8,30.2,87,29.66,9.0,SW,13.8,-,0.00,Rain,Light Rain,230,2014-01-15 00:38:00
7:53 PM,32.0,25.0,75,29.69,10.0,WSW,17.3,26.5,0.00,,Overcast,240,2014-01-15 00:53:00
8:00 PM,32.0,24.8,75,29.67,10.0,WSW,21.9,26.5,N/A,,Overcast,240,2014-01-15 01:00:00
8:22 PM,30.2,24.8,80,29.68,9.0,WSW,20.7,-,N/A,,Overcast,240,2014-01-15 01:22:00
8:53 PM,30.0,21.0,69,29.72,10.0,WSW,16.1,28.8,N/A,,Overcast,240,2014-01-15 01:53:00
9:01 PM,30.2,21.2,69,29.69,10.0,WSW,16.1,24.2,N/A,,Overcast,240,2014-01-15 02:01:00
9:53 PM,30.0,19.9,66,29.72,10.0,SW,17.3,24.2,N/A,,Overcast,230,2014-01-15 02:53:00
10:00 PM,28.4,19.4,69,29.69,10.0,SW,25.3,35.7,N/A,,Overcast,230,2014-01-15 03:00:00
10:07 PM,28.4,19.4,69,29.69,10.0,SW,24.2,36.8,N/A,,Overcast,230,2014-01-15 03:07:00
10:28 PM,28.4,17.6,64,29.69,10.0,SW,17.3,28.8,N/A,,Overcast,230,2014-01-15 03:28:00
10:53 PM,28.0,17.1,63,29.68,10.0,SW,24.2,34.5,N/A,,Overcast,220,2014-01-15 03:53:00
11:53 PM,27.0,17.1,66,29.71,10.0,SSW,20.7,-,0.00,,Overcast,210,2014-01-15 04:53:00